Terminal Aerodrome Forecast
Issued by NWS Bismarck, ND

Home | Current Version | Previous Version | Text Only | Print | Product List | Glossary Off
Versions: 1 2 3 4 5 6 7 8 9 10 11 12 13 14 15 16 17 18 19 20 21 22 23 24

021
FTUS43 KBIS 191253 AAB
TAFBIS
TAF AMD
KBIS 191253Z 1913/2012 00000KT 3SM BR SCT015
     FM191500 VRB03KT P6SM SCT025
     FM191700 11006KT P6SM SCT035
     FM191900 10008KT P6SM FEW050
     FM200100 10007KT P6SM SCT180=

USA.gov is the U.S. government's official web portal to all federal, state and local government web resources and services.